createdAt,value
2017-09-12T00:00:51.652Z,5.8
2017-09-12T00:01:54.380Z,5.8
2017-09-12T00:02:56.769Z,5.8
2017-09-12T00:03:59.172Z,5.8
2017-09-12T00:05:01.566Z,5.8
2017-09-12T00:06:03.968Z,5.8
2017-09-12T00:07:06.351Z,5.8
2017-09-12T00:08:08.747Z,5.8
2017-09-12T00:09:11.150Z,5.8
2017-09-12T00:10:13.539Z,5.8
2017-09-12T00:11:16.277Z,5.8
2017-09-12T00:12:18.678Z,5.8
2017-09-12T00:13:21.070Z,5.8
2017-09-12T00:14:23.471Z,5.8
2017-09-12T00:15:25.872Z,5.9
2017-09-12T00:16:28.261Z,5.8
2017-09-12T00:17:30.656Z,5.8
2017-09-12T00:18:33.053Z,5.8
2017-09-12T00:19:35.436Z,5.8
2017-09-12T00:20:37.823Z,5.8
2017-09-12T00:21:40.553Z,5.8
2017-09-12T00:22:42.937Z,5.7
2017-09-12T00:23:45.336Z,5.8
2017-09-12T00:24:48.428Z,5.8
2017-09-12T00:25:50.813Z,5.8
2017-09-12T00:26:53.214Z,5.8
2017-09-12T00:27:55.607Z,5.8
2017-09-12T00:28:57.996Z,5.8
2017-09-12T00:30:00.392Z,5.8
2017-09-12T00:31:02.781Z,5.8
2017-09-12T00:32:05.168Z,5.8
2017-09-12T00:33:07.932Z,5.7
2017-09-12T00:34:10.674Z,5.8
2017-09-12T00:35:13.062Z,5.8
2017-09-12T00:36:15.460Z,5.8
2017-09-12T00:37:17.851Z,5.8
2017-09-12T00:38:20.246Z,5.8
2017-09-12T00:39:22.634Z,5.8
2017-09-12T00:40:25.028Z,5.7
2017-09-12T00:41:27.418Z,5.7
2017-09-12T00:42:29.809Z,5.8
2017-09-12T00:43:32.203Z,5.8
2017-09-12T00:44:34.593Z,5.8
2017-09-12T00:45:36.982Z,5.9
2017-09-12T00:46:39.381Z,5.8
2017-09-12T00:47:41.771Z,5.8
2017-09-12T00:48:44.211Z,5.8
2017-09-12T00:49:46.946Z,5.8
2017-09-12T00:50:49.338Z,5.8
2017-09-12T00:51:51.735Z,5.8
2017-09-12T00:52:54.139Z,5.8
2017-09-12T00:53:56.528Z,5.8
2017-09-12T00:54:58.927Z,5.8
2017-09-12T00:56:01.313Z,5.8
2017-09-12T00:57:03.709Z,5.8
2017-09-12T00:58:06.093Z,5.8
2017-09-12T00:59:08.493Z,5.8
2017-09-12T01:00:10.886Z,5.8
2017-09-12T01:01:13.277Z,5.8
2017-09-12T01:02:15.675Z,5.8
2017-09-12T01:03:18.062Z,5.8
2017-09-12T01:04:20.456Z,5.8
2017-09-12T01:05:22.857Z,5.8
2017-09-12T01:06:25.246Z,5.8
2017-09-12T01:07:27.640Z,5.7
2017-09-12T01:08:30.039Z,5.8
2017-09-12T01:09:32.425Z,5.8
2017-09-12T01:10:34.825Z,5.8
2017-09-12T01:11:37.219Z,5.8
2017-09-12T01:12:39.613Z,5.8
2017-09-12T01:13:42.011Z,5.8
2017-09-12T01:14:44.414Z,5.8
2017-09-12T01:15:46.797Z,5.8
2017-09-12T01:16:49.192Z,5.8
2017-09-12T01:17:51.586Z,5.8
2017-09-12T01:18:53.979Z,5.7
2017-09-12T01:19:56.369Z,5.8
2017-09-12T01:20:59.095Z,5.8
2017-09-12T01:22:01.486Z,5.8
2017-09-12T01:23:04.219Z,5.8
2017-09-12T01:24:06.604Z,5.8
2017-09-12T01:25:09.007Z,5.7
2017-09-12T01:26:11.406Z,5.7
2017-09-12T01:27:13.793Z,5.7
2017-09-12T01:28:16.185Z,5.7
2017-09-12T01:29:18.581Z,5.7
2017-09-12T01:30:20.975Z,5.8
2017-09-12T01:31:23.364Z,5.7
2017-09-12T01:32:25.765Z,5.8
2017-09-12T01:33:28.154Z,5.8
2017-09-12T01:34:30.546Z,5.8
2017-09-12T01:35:32.945Z,5.7
2017-09-12T01:36:35.337Z,5.8
2017-09-12T01:37:38.062Z,5.7
2017-09-12T01:38:40.451Z,5.7
2017-09-12T01:39:42.857Z,5.7
2017-09-12T01:40:45.243Z,5.7
2017-09-12T01:41:47.642Z,5.7
2017-09-12T01:42:50.043Z,5.8
2017-09-12T01:43:52.432Z,5.7
2017-09-12T01:44:54.836Z,5.7
2017-09-12T01:45:57.233Z,5.7
2017-09-12T01:46:59.629Z,5.7
2017-09-12T01:48:02.020Z,5.7
2017-09-12T01:49:04.411Z,5.7
2017-09-12T01:50:06.797Z,5.7
2017-09-12T01:51:09.192Z,5.7
2017-09-12T01:52:11.587Z,5.7
2017-09-12T01:53:13.976Z,5.7
2017-09-12T01:54:16.370Z,5.7
2017-09-12T01:55:18.768Z,5.7
2017-09-12T01:56:21.158Z,5.7
2017-09-12T01:57:23.909Z,5.7
2017-09-12T01:58:26.305Z,5.7
2017-09-12T01:59:28.688Z,5.7
2017-09-12T02:00:31.085Z,5.7
2017-09-12T02:01:33.480Z,5.7
2017-09-12T02:02:35.869Z,5.7
2017-09-12T02:03:38.619Z,5.7
2017-09-12T02:04:41.014Z,5.7
2017-09-12T02:05:43.396Z,5.7
2017-09-12T02:06:45.794Z,5.7
2017-09-12T02:07:48.866Z,5.7
2017-09-12T02:08:51.263Z,5.8
2017-09-12T02:09:53.648Z,5.7
2017-09-12T02:10:56.043Z,5.7
2017-09-12T02:11:58.439Z,5.7
2017-09-12T02:13:01.157Z,5.7
2017-09-12T02:14:03.560Z,5.7
2017-09-12T02:15:05.951Z,5.7
2017-09-12T02:16:08.682Z,5.7
2017-09-12T02:17:11.079Z,5.7
2017-09-12T02:18:13.470Z,5.7
2017-09-12T02:19:15.858Z,5.7
2017-09-12T02:20:18.257Z,5.7
2017-09-12T02:21:20.643Z,5.7
2017-09-12T02:22:23.037Z,5.7
2017-09-12T02:23:25.430Z,5.7
2017-09-12T02:24:27.823Z,5.7
2017-09-12T02:25:30.207Z,5.7
2017-09-12T02:26:32.605Z,5.7
2017-09-12T02:27:34.993Z,5.8
2017-09-12T02:28:37.386Z,5.7
2017-09-12T02:29:39.779Z,5.7
2017-09-12T02:30:42.173Z,5.7
2017-09-12T02:31:44.570Z,5.7
2017-09-12T02:32:46.967Z,5.7
2017-09-12T02:33:49.356Z,5.7
2017-09-12T02:34:51.750Z,5.8
2017-09-12T02:35:54.147Z,5.7
2017-09-12T02:36:56.541Z,5.7
2017-09-12T02:37:58.933Z,5.7
2017-09-12T02:39:01.332Z,5.7
2017-09-12T02:40:03.729Z,5.7
2017-09-12T02:41:06.119Z,5.7
2017-09-12T02:42:08.509Z,5.7
2017-09-12T02:43:10.914Z,5.7
2017-09-12T02:44:13.976Z,5.7
2017-09-12T02:45:16.365Z,5.7
2017-09-12T02:46:19.090Z,5.7
2017-09-12T02:47:21.479Z,5.7
2017-09-12T02:48:23.870Z,5.7
2017-09-12T02:49:26.609Z,5.7
2017-09-12T02:50:28.996Z,5.7
2017-09-12T02:51:31.388Z,5.7
2017-09-12T02:52:34.125Z,5.7
2017-09-12T02:53:36.875Z,5.8
2017-09-12T02:54:39.270Z,5.7
2017-09-12T02:55:41.653Z,5.7
2017-09-12T02:56:44.043Z,5.7
2017-09-12T02:57:46.444Z,5.7
2017-09-12T02:58:48.832Z,5.7
2017-09-12T02:59:51.219Z,5.7
2017-09-12T03:00:53.619Z,5.7
2017-09-12T03:01:56.000Z,5.7
2017-09-12T03:02:58.395Z,5.8
2017-09-12T03:04:01.129Z,5.7
2017-09-12T03:05:03.509Z,5.7
2017-09-12T03:06:05.910Z,5.8
2017-09-12T03:07:08.311Z,5.7
2017-09-12T03:08:11.043Z,5.7
2017-09-12T03:09:13.438Z,5.7
2017-09-12T03:10:15.830Z,5.7
2017-09-12T03:11:18.215Z,5.7
2017-09-12T03:12:20.617Z,5.7
2017-09-12T03:13:23.007Z,5.8
2017-09-12T03:14:25.401Z,5.8
2017-09-12T03:15:27.796Z,5.7
2017-09-12T03:16:30.207Z,5.8
2017-09-12T03:17:32.580Z,5.7
2017-09-12T03:18:34.983Z,5.8
2017-09-12T03:19:37.360Z,5.7
2017-09-12T03:20:39.763Z,5.8
2017-09-12T03:21:42.142Z,5.7
2017-09-12T03:22:44.539Z,5.7
2017-09-12T03:23:46.938Z,5.8
2017-09-12T03:24:49.336Z,5.8
2017-09-12T03:25:51.723Z,5.7
2017-09-12T03:26:54.117Z,5.7
2017-09-12T03:27:56.507Z,5.7
2017-09-12T03:28:58.910Z,5.8
2017-09-12T03:30:01.309Z,5.8
2017-09-12T03:31:04.031Z,5.7
2017-09-12T03:32:06.428Z,5.7
2017-09-12T03:33:08.825Z,5.7
2017-09-12T03:34:11.216Z,5.8
2017-09-12T03:35:13.602Z,5.7
2017-09-12T03:36:16.000Z,5.8
2017-09-12T03:37:18.388Z,5.8
2017-09-12T03:38:20.775Z,5.7
2017-09-12T03:39:23.165Z,5.8
2017-09-12T03:40:25.562Z,5.8
2017-09-12T03:41:27.958Z,5.8
2017-09-12T03:42:30.690Z,5.8
2017-09-12T03:43:33.072Z,5.8
2017-09-12T03:44:35.812Z,5.8
2017-09-12T03:45:38.213Z,5.8
2017-09-12T03:46:40.610Z,5.8
2017-09-12T03:47:42.997Z,5.8
2017-09-12T03:48:45.386Z,5.8
2017-09-12T03:49:48.128Z,5.8
2017-09-12T03:50:50.518Z,5.8
2017-09-12T03:51:52.915Z,5.8
2017-09-12T03:52:55.302Z,5.8
2017-09-12T03:53:57.693Z,5.8
2017-09-12T03:55:00.098Z,5.7
2017-09-12T03:56:02.490Z,5.8
2017-09-12T03:57:05.221Z,5.8
2017-09-12T03:58:07.613Z,5.8
2017-09-12T03:59:10.012Z,5.8
2017-09-12T04:00:12.406Z,5.8
2017-09-12T04:01:14.802Z,5.7
2017-09-12T04:02:17.192Z,5.8
2017-09-12T04:03:19.585Z,5.7
2017-09-12T04:04:21.979Z,5.8
2017-09-12T04:05:24.712Z,5.8
2017-09-12T04:06:27.103Z,5.8
2017-09-12T04:07:29.503Z,5.8
2017-09-12T04:08:31.892Z,5.8
2017-09-12T04:09:34.283Z,5.7
2017-09-12T04:10:36.679Z,5.8
2017-09-12T04:11:39.076Z,5.8
2017-09-12T04:12:41.811Z,5.8
2017-09-12T04:13:44.201Z,5.8
2017-09-12T04:14:46.590Z,5.8
2017-09-12T04:15:48.977Z,5.8
2017-09-12T04:16:51.381Z,5.7
2017-09-12T04:17:54.106Z,5.7
2017-09-12T04:18:56.492Z,5.8
2017-09-12T04:19:58.887Z,5.8
2017-09-12T04:21:01.279Z,5.7
2017-09-12T04:22:03.681Z,5.8
2017-09-12T04:23:06.071Z,5.8
2017-09-12T04:24:08.467Z,5.8
2017-09-12T04:25:10.856Z,5.8
2017-09-12T04:26:13.256Z,5.8
2017-09-12T04:27:15.648Z,5.8
2017-09-12T04:28:18.039Z,5.8
2017-09-12T04:29:20.428Z,5.7
2017-09-12T04:30:22.816Z,5.8
2017-09-12T04:31:25.212Z,5.8
2017-09-12T04:32:27.601Z,5.8
2017-09-12T04:33:29.996Z,5.8
2017-09-12T04:34:32.389Z,5.7
2017-09-12T04:35:34.781Z,5.8
2017-09-12T04:36:37.169Z,5.8
2017-09-12T04:37:39.564Z,5.8
2017-09-12T04:38:42.299Z,5.8
2017-09-12T04:39:44.695Z,5.8
2017-09-12T04:40:47.088Z,5.7
2017-09-12T04:41:50.172Z,5.8
2017-09-12T04:42:52.558Z,5.8
2017-09-12T04:43:54.960Z,5.8
2017-09-12T04:44:57.691Z,5.8
2017-09-12T04:46:00.082Z,5.8
2017-09-12T04:47:02.478Z,5.8
2017-09-12T04:48:04.874Z,5.8
2017-09-12T04:49:07.274Z,5.7
2017-09-12T04:50:10.003Z,5.7
2017-09-12T04:51:12.746Z,5.8
2017-09-12T04:52:15.140Z,5.8
2017-09-12T04:53:17.534Z,5.8
2017-09-12T04:54:19.939Z,5.8
2017-09-12T04:55:22.331Z,5.8
2017-09-12T04:56:24.730Z,5.8
2017-09-12T04:57:27.130Z,5.8
2017-09-12T04:58:29.525Z,5.8
2017-09-12T04:59:31.936Z,5.8
2017-09-12T05:00:34.330Z,5.8
2017-09-12T05:01:37.402Z,5.8
2017-09-12T05:02:39.802Z,5.8
2017-09-12T05:03:42.210Z,5.8
2017-09-12T05:04:44.608Z,5.8
2017-09-12T05:05:47.001Z,5.8
2017-09-12T05:06:49.731Z,5.7
2017-09-12T05:07:52.133Z,5.8
2017-09-12T05:08:54.523Z,5.8
2017-09-12T05:09:56.926Z,5.8
2017-09-12T05:10:59.334Z,5.8
2017-09-12T05:12:01.727Z,5.8
2017-09-12T05:13:04.127Z,5.7
2017-09-12T05:14:06.521Z,5.8
2017-09-12T05:15:08.916Z,5.8
2017-09-12T05:16:11.314Z,5.8
2017-09-12T05:17:13.712Z,5.8
2017-09-12T05:18:16.102Z,5.8
2017-09-12T05:19:18.516Z,5.8
2017-09-12T05:20:21.258Z,5.9
2017-09-12T05:21:23.660Z,5.8
2017-09-12T05:22:26.055Z,5.8
2017-09-12T05:23:28.442Z,5.8
2017-09-12T05:24:30.832Z,5.8
2017-09-12T05:25:33.232Z,5.7
2017-09-12T05:26:35.625Z,5.8
2017-09-12T05:27:38.025Z,5.8
2017-09-12T05:28:40.424Z,5.8
2017-09-12T05:29:42.820Z,5.8
2017-09-12T05:30:45.223Z,5.8
2017-09-12T05:31:47.628Z,5.8
2017-09-12T05:32:50.006Z,5.8
2017-09-12T05:33:52.739Z,5.8
2017-09-12T05:34:55.147Z,5.8
2017-09-12T05:35:57.563Z,5.8
2017-09-12T05:36:59.966Z,5.8
2017-09-12T05:38:02.375Z,5.8
2017-09-12T05:39:04.775Z,5.8
2017-09-12T05:40:07.170Z,5.8
2017-09-12T05:41:09.575Z,5.8
2017-09-12T05:42:11.960Z,5.8
2017-09-12T05:43:14.351Z,5.8
2017-09-12T05:44:16.746Z,5.8
2017-09-12T05:45:19.146Z,5.8
2017-09-12T05:46:21.533Z,5.8
2017-09-12T05:47:23.938Z,5.8
2017-09-12T05:48:26.339Z,5.9
2017-09-12T05:49:28.740Z,5.8
2017-09-12T05:50:31.140Z,5.8
2017-09-12T05:51:33.533Z,5.8
2017-09-12T05:52:35.925Z,5.8
2017-09-12T05:53:38.332Z,5.8
2017-09-12T05:54:40.731Z,5.8
2017-09-12T05:55:43.148Z,5.7
2017-09-12T05:56:45.870Z,5.8
2017-09-12T05:57:48.269Z,5.8
2017-09-12T05:58:50.665Z,5.8
2017-09-12T05:59:53.065Z,5.9
2017-09-12T06:00:55.463Z,5.8
2017-09-12T06:01:57.857Z,5.8
2017-09-12T06:03:00.254Z,5.8
2017-09-12T06:04:03.006Z,5.8
2017-09-12T06:05:05.413Z,5.8
2017-09-12T06:06:07.813Z,5.8
2017-09-12T06:07:10.214Z,5.8
2017-09-12T06:08:12.608Z,5.8
2017-09-12T06:09:14.993Z,5.8
2017-09-12T06:10:17.402Z,5.8
2017-09-12T06:11:19.807Z,5.8
2017-09-12T06:12:22.195Z,5.8
2017-09-12T06:13:24.591Z,5.9
2017-09-12T06:14:26.988Z,5.8
2017-09-12T06:15:29.382Z,5.8
2017-09-12T06:16:31.787Z,5.8
2017-09-12T06:17:34.180Z,5.8
2017-09-12T06:18:36.919Z,5.8
2017-09-12T06:19:39.312Z,5.8
2017-09-12T06:20:41.711Z,5.8
2017-09-12T06:21:44.096Z,5.9
2017-09-12T06:22:46.498Z,5.8
2017-09-12T06:23:48.886Z,5.8
2017-09-12T06:24:51.289Z,5.9
2017-09-12T06:25:53.688Z,5.9
2017-09-12T06:26:56.079Z,5.9
2017-09-12T06:27:58.479Z,5.9
2017-09-12T06:29:00.875Z,5.9
2017-09-12T06:30:03.272Z,5.9
2017-09-12T06:31:06.023Z,5.9
2017-09-12T06:32:08.416Z,5.9
2017-09-12T06:33:10.823Z,5.9
2017-09-12T06:34:13.226Z,5.9
2017-09-12T06:35:15.618Z,5.9
2017-09-12T06:36:18.031Z,5.9
2017-09-12T06:37:20.424Z,5.9
2017-09-12T06:38:22.817Z,5.9
2017-09-12T06:39:25.215Z,5.9
2017-09-12T06:40:27.613Z,5.9
2017-09-12T06:41:30.008Z,5.9
2017-09-12T06:42:32.409Z,5.9
2017-09-12T06:43:34.807Z,5.9
2017-09-12T06:44:37.199Z,5.9
2017-09-12T06:45:39.608Z,5.9
2017-09-12T06:46:42.000Z,5.9
2017-09-12T06:47:44.732Z,5.9
2017-09-12T06:48:47.145Z,5.9
2017-09-12T06:49:49.542Z,5.9
2017-09-12T06:50:51.935Z,5.9
2017-09-12T06:51:54.341Z,5.9
2017-09-12T06:52:56.737Z,5.8
2017-09-12T06:53:59.133Z,5.9
2017-09-12T06:55:01.539Z,5.9
2017-09-12T06:56:04.123Z,5.9
2017-09-12T06:57:06.521Z,5.9
2017-09-12T06:58:08.920Z,5.9
2017-09-12T06:59:11.306Z,5.9
2017-09-12T07:00:13.717Z,5.9
2017-09-12T07:01:16.112Z,5.8
2017-09-12T07:02:18.503Z,5.9
2017-09-12T07:03:20.900Z,5.9
2017-09-12T07:04:23.295Z,5.9
2017-09-12T07:05:25.688Z,5.9
2017-09-12T07:06:28.078Z,5.9
2017-09-12T07:07:30.486Z,5.9
2017-09-12T07:08:32.879Z,5.9
2017-09-12T07:09:35.273Z,5.9
2017-09-12T07:10:38.010Z,5.9
2017-09-12T07:11:40.746Z,5.9
2017-09-12T07:12:43.139Z,6
2017-09-12T07:13:45.546Z,5.9
2017-09-12T07:14:47.927Z,6
2017-09-12T07:15:50.338Z,5.9
2017-09-12T07:16:52.739Z,6
2017-09-12T07:17:55.476Z,5.9
2017-09-12T07:18:57.870Z,5.9
2017-09-12T07:20:00.605Z,5.9
2017-09-12T07:21:03.000Z,5.9
2017-09-12T07:22:05.409Z,5.9
2017-09-12T07:23:07.802Z,5.8
2017-09-12T07:24:10.210Z,5.9
2017-09-12T07:25:12.957Z,5.9
2017-09-12T07:26:15.351Z,5.8
2017-09-12T07:27:17.745Z,5.9
2017-09-12T07:28:20.139Z,5.9
2017-09-12T07:29:22.554Z,6
2017-09-12T07:30:24.943Z,5.9
2017-09-12T07:31:27.345Z,5.9
2017-09-12T07:32:29.739Z,5.9
2017-09-12T07:33:32.155Z,5.9
2017-09-12T07:34:34.547Z,5.9
2017-09-12T07:35:36.938Z,5.9
2017-09-12T07:36:39.335Z,5.9
2017-09-12T07:37:41.735Z,5.9
2017-09-12T07:38:44.129Z,5.9
2017-09-12T07:39:46.525Z,5.9
2017-09-12T07:40:49.279Z,5.9
2017-09-12T07:41:51.678Z,5.9
2017-09-12T07:42:54.078Z,5.9
2017-09-12T07:43:56.820Z,5.9
2017-09-12T07:44:59.220Z,5.9
2017-09-12T07:46:01.619Z,6
2017-09-12T07:47:04.014Z,5.9
2017-09-12T07:48:06.414Z,6
2017-09-12T07:49:08.809Z,5.9
2017-09-12T07:50:11.203Z,6
2017-09-12T07:51:13.597Z,5.9
2017-09-12T07:52:15.986Z,6
2017-09-12T07:53:18.392Z,5.9
2017-09-12T07:54:20.783Z,5.9
2017-09-12T07:55:23.521Z,5.9
2017-09-12T07:56:25.928Z,6
2017-09-12T07:57:28.326Z,5.9
2017-09-12T07:58:30.727Z,5.9
2017-09-12T07:59:33.131Z,6
2017-09-12T08:00:35.529Z,5.9
2017-09-12T08:01:37.933Z,6
2017-09-12T08:02:40.333Z,6
2017-09-12T08:03:43.061Z,6
2017-09-12T08:04:45.457Z,6
2017-09-12T08:05:47.857Z,5.9
2017-09-12T08:06:50.264Z,6
2017-09-12T08:07:52.663Z,6
2017-09-12T08:08:55.062Z,6
2017-09-12T08:09:57.455Z,6
2017-09-12T08:10:59.851Z,6
2017-09-12T08:12:02.260Z,5.9
2017-09-12T08:13:04.653Z,6
2017-09-12T08:14:07.034Z,5.9
2017-09-12T08:15:09.434Z,6
2017-09-12T08:16:11.833Z,5.9
2017-09-12T08:17:14.227Z,5.9
2017-09-12T08:18:16.627Z,6
2017-09-12T08:19:19.018Z,6
2017-09-12T08:20:21.433Z,5.9
2017-09-12T08:21:23.824Z,6
2017-09-12T08:22:26.210Z,6
2017-09-12T08:23:28.622Z,5.9
2017-09-12T08:24:31.014Z,6
2017-09-12T08:25:33.405Z,6
2017-09-12T08:26:35.813Z,5.9
2017-09-12T08:27:38.226Z,6
2017-09-12T08:28:40.612Z,6
2017-09-12T08:29:43.020Z,6
2017-09-12T08:30:45.412Z,6
2017-09-12T08:31:47.804Z,6
2017-09-12T08:32:50.194Z,6.1
2017-09-12T08:33:52.604Z,6
2017-09-12T08:34:55.009Z,6
2017-09-12T08:35:57.756Z,6
2017-09-12T08:37:00.170Z,6
2017-09-12T08:38:02.570Z,6
2017-09-12T08:39:04.958Z,6
2017-09-12T08:40:07.361Z,6.1
2017-09-12T08:41:10.095Z,6
2017-09-12T08:42:12.484Z,6
2017-09-12T08:43:14.881Z,6
2017-09-12T08:44:17.307Z,6
2017-09-12T08:45:19.695Z,6
2017-09-12T08:46:22.101Z,6
2017-09-12T08:47:24.506Z,6
2017-09-12T08:48:26.898Z,6
2017-09-12T08:49:29.312Z,6
2017-09-12T08:50:31.710Z,6.1
2017-09-12T08:51:34.098Z,6.1
2017-09-12T08:52:36.504Z,6
2017-09-12T08:53:38.898Z,6.1
2017-09-12T08:54:41.299Z,6.1
2017-09-12T08:55:43.701Z,6.1
2017-09-12T08:56:46.094Z,6
2017-09-12T08:57:48.489Z,6.1
2017-09-12T08:58:50.897Z,6.1
2017-09-12T08:59:53.288Z,6.1
2017-09-12T09:00:55.683Z,6.1
2017-09-12T09:01:58.090Z,6.1
2017-09-12T09:03:00.482Z,6.1
2017-09-12T09:04:02.900Z,6.1
2017-09-12T09:05:05.300Z,6.2
2017-09-12T09:06:08.046Z,6.1
2017-09-12T09:07:10.450Z,6.1
2017-09-12T09:08:12.859Z,6.1
2017-09-12T09:09:15.244Z,6
2017-09-12T09:10:17.645Z,6.1
2017-09-12T09:11:20.048Z,6.1
2017-09-12T09:12:22.779Z,6.1
2017-09-12T09:13:25.522Z,6.2
2017-09-12T09:14:27.918Z,6.1
2017-09-12T09:15:30.313Z,6.1
2017-09-12T09:16:32.710Z,6.1
2017-09-12T09:17:35.113Z,6.1
2017-09-12T09:18:37.501Z,6.1
2017-09-12T09:19:40.259Z,6.2
2017-09-12T09:20:42.666Z,6.2
2017-09-12T09:21:45.062Z,6.1
2017-09-12T09:22:47.465Z,6.1
2017-09-12T09:23:50.193Z,6.2
2017-09-12T09:24:52.586Z,6.1
2017-09-12T09:25:54.988Z,6.2
2017-09-12T09:26:57.721Z,6.2
2017-09-12T09:28:00.117Z,6.2
2017-09-12T09:29:02.531Z,6.2
2017-09-12T09:30:04.922Z,6.2
2017-09-12T09:31:07.320Z,6.1
2017-09-12T09:32:09.713Z,6.1
2017-09-12T09:33:12.119Z,6.1
2017-09-12T09:34:14.518Z,6.1
2017-09-12T09:35:16.925Z,6.1
2017-09-12T09:36:19.325Z,6.2
2017-09-12T09:37:22.060Z,6.1
2017-09-12T09:38:24.795Z,6.1
2017-09-12T09:39:27.197Z,6.1
2017-09-12T09:40:29.588Z,6.2
2017-09-12T09:41:31.985Z,6.1
2017-09-12T09:42:34.386Z,6.1
2017-09-12T09:43:36.784Z,6.1
2017-09-12T09:44:39.173Z,6.2
2017-09-12T09:45:41.577Z,6.1
2017-09-12T09:46:43.970Z,6.1
2017-09-12T09:47:46.368Z,6.1
2017-09-12T09:48:48.772Z,6.1
2017-09-12T09:49:51.169Z,6.2
2017-09-12T09:50:53.564Z,6.2
2017-09-12T09:51:56.303Z,6.2
2017-09-12T09:52:58.696Z,6.3
2017-09-12T09:54:01.101Z,6.3
2017-09-12T09:55:03.497Z,6.3
2017-09-12T09:56:05.886Z,6.3
2017-09-12T09:57:08.292Z,6.4
2017-09-12T09:58:10.694Z,6.4
2017-09-12T09:59:13.090Z,6.4
2017-09-12T10:00:15.484Z,6.4
2017-09-12T10:01:18.228Z,6.4
2017-09-12T10:02:20.630Z,6.4
2017-09-12T10:03:23.027Z,6.5
2017-09-12T10:04:25.427Z,6.4
2017-09-12T10:05:27.832Z,6.4
2017-09-12T10:06:30.227Z,6.4
2017-09-12T10:07:32.631Z,6.5
2017-09-12T10:08:35.030Z,6.5
2017-09-12T10:09:37.435Z,6.5
2017-09-12T10:10:39.835Z,6.5
2017-09-12T10:11:42.241Z,6.5
2017-09-12T10:12:44.636Z,6.5
2017-09-12T10:13:47.043Z,6.5
2017-09-12T10:14:49.439Z,6.6
2017-09-12T10:15:51.844Z,6.6
2017-09-12T10:16:54.251Z,6.6
2017-09-12T10:17:56.986Z,6.6
2017-09-12T10:18:59.724Z,6.7
2017-09-12T10:20:02.134Z,6.8
2017-09-12T10:21:04.536Z,6.7
2017-09-12T10:22:06.934Z,6.7
2017-09-12T10:23:09.341Z,6.7
2017-09-12T10:24:11.742Z,6.7
2017-09-12T10:25:14.141Z,6.7
2017-09-12T10:26:16.550Z,6.7
2017-09-12T10:27:18.944Z,6.7
2017-09-12T10:28:21.352Z,6.7
2017-09-12T10:29:23.753Z,6.7
2017-09-12T10:30:26.161Z,6.7
2017-09-12T10:31:28.564Z,6.7
2017-09-12T10:32:30.968Z,6.7
2017-09-12T10:33:33.369Z,6.8
2017-09-12T10:34:35.768Z,6.7
2017-09-12T10:35:38.165Z,6.7
2017-09-12T10:36:40.569Z,6.8
2017-09-12T10:37:42.970Z,6.7
2017-09-12T10:38:45.372Z,6.8
2017-09-12T10:39:47.766Z,6.7
2017-09-12T10:40:50.175Z,6.7
2017-09-12T10:41:52.587Z,6.7
2017-09-12T10:42:55.037Z,6.7
2017-09-12T10:43:57.448Z,6.7
2017-09-12T10:44:59.845Z,6.7
2017-09-12T10:46:02.254Z,6.7
2017-09-12T10:47:04.654Z,6.7
2017-09-12T10:48:07.061Z,6.6
2017-09-12T10:49:09.458Z,6.6
2017-09-12T10:50:12.196Z,6.6
2017-09-12T10:51:14.608Z,6.7
2017-09-12T10:52:17.006Z,6.7
2017-09-12T10:53:19.746Z,6.7
2017-09-12T10:54:22.142Z,6.6
2017-09-12T10:55:24.547Z,6.6
2017-09-12T10:56:26.949Z,6.6
2017-09-12T10:57:29.356Z,6.6
2017-09-12T10:58:31.751Z,6.6
2017-09-12T10:59:34.150Z,6.6
2017-09-12T11:00:36.552Z,6.6
2017-09-12T11:01:39.289Z,6.6
2017-09-12T11:02:41.697Z,6.5
2017-09-12T11:03:44.095Z,6.6
2017-09-12T11:04:46.842Z,6.6
2017-09-12T11:05:49.257Z,6.6
2017-09-12T11:06:51.647Z,6.5
2017-09-12T11:07:54.058Z,6.5
2017-09-12T11:08:56.459Z,6.5
2017-09-12T11:09:58.855Z,6.5
2017-09-12T11:11:01.256Z,6.5
2017-09-12T11:12:03.659Z,6.6
2017-09-12T11:13:06.050Z,6.5
2017-09-12T11:14:08.456Z,6.6
2017-09-12T11:15:10.846Z,6.6
2017-09-12T11:16:13.244Z,6.7
2017-09-12T11:17:15.657Z,6.7
2017-09-12T11:18:18.059Z,6.7
2017-09-12T11:19:20.472Z,6.7
2017-09-12T11:20:22.891Z,6.7
2017-09-12T11:21:25.304Z,6.7
2017-09-12T11:22:27.732Z,6.7
2017-09-12T11:23:30.156Z,6.7
2017-09-12T11:24:32.549Z,6.8
2017-09-12T11:25:34.958Z,6.8
2017-09-12T11:26:37.393Z,6.8
2017-09-12T11:27:39.799Z,6.8
2017-09-12T11:28:42.224Z,6.8
2017-09-12T11:29:44.635Z,6.8
2017-09-12T11:30:47.050Z,6.8
2017-09-12T11:31:49.468Z,6.8
2017-09-12T11:32:51.893Z,6.8
2017-09-12T11:33:54.308Z,6.7
2017-09-12T11:34:56.726Z,6.8
2017-09-12T11:35:59.132Z,6.7
2017-09-12T11:37:01.534Z,6.7
2017-09-12T11:38:03.963Z,6.7
2017-09-12T11:39:06.374Z,6.7
2017-09-12T11:40:08.778Z,6.7
2017-09-12T11:41:11.175Z,6.7
2017-09-12T11:42:13.575Z,6.6
2017-09-12T11:43:15.981Z,6.6
2017-09-12T11:44:18.386Z,6.7
2017-09-12T11:45:20.787Z,6.6
2017-09-12T11:46:23.191Z,6.6
2017-09-12T11:47:25.982Z,6.6
2017-09-12T11:48:28.387Z,6.6
2017-09-12T11:49:30.790Z,6.6
2017-09-12T11:50:33.192Z,6.6
2017-09-12T11:51:35.927Z,6.5
2017-09-12T11:52:38.337Z,6.6
2017-09-12T11:53:40.745Z,6.6
2017-09-12T11:54:43.146Z,6.6
2017-09-12T11:55:45.549Z,6.6
2017-09-12T11:56:47.952Z,6.5
2017-09-12T11:57:50.357Z,6.6
2017-09-12T11:58:52.763Z,6.5
2017-09-12T11:59:55.166Z,6.6
2017-09-12T12:00:57.569Z,6.6
2017-09-12T12:01:59.978Z,6.5
2017-09-12T12:03:02.371Z,6.5
2017-09-12T12:04:04.778Z,6.5
2017-09-12T12:05:07.189Z,6.5
2017-09-12T12:06:09.590Z,6.5
2017-09-12T12:07:11.990Z,6.5
2017-09-12T12:08:14.388Z,6.5
2017-09-12T12:09:16.776Z,6.5
2017-09-12T12:10:19.184Z,6.5
2017-09-12T12:11:21.576Z,6.5
2017-09-12T12:12:23.972Z,6.5
2017-09-12T12:13:26.378Z,6.5
2017-09-12T12:14:28.785Z,6.5
2017-09-12T12:15:31.547Z,6.5
2017-09-12T12:16:33.952Z,6.5
2017-09-12T12:17:36.352Z,6.6
2017-09-12T12:18:38.757Z,6.5
2017-09-12T12:19:41.495Z,6.5
2017-09-12T12:20:43.896Z,6.5
2017-09-12T12:21:46.299Z,6.6
2017-09-12T12:22:48.697Z,6.6
2017-09-12T12:23:51.428Z,6.6
2017-09-12T12:24:53.832Z,6.6
2017-09-12T12:25:56.229Z,6.6
2017-09-12T12:26:58.636Z,6.6
2017-09-12T12:28:01.032Z,6.7
2017-09-12T12:29:03.447Z,6.6
2017-09-12T12:30:05.844Z,6.7
2017-09-12T12:31:08.249Z,6.7
2017-09-12T12:32:10.655Z,6.7
2017-09-12T12:33:13.053Z,6.7
2017-09-12T12:34:15.797Z,6.7
2017-09-12T12:35:18.202Z,6.7
2017-09-12T12:36:20.605Z,6.7
2017-09-12T12:37:23.011Z,6.7
2017-09-12T12:38:25.748Z,6.6
2017-09-12T12:39:28.147Z,6.6
2017-09-12T12:40:30.549Z,6.6
2017-09-12T12:41:32.958Z,6.6
2017-09-12T12:42:35.363Z,6.6
2017-09-12T12:43:37.767Z,6.6
2017-09-12T12:44:40.170Z,6.6
2017-09-12T12:45:42.571Z,6.7
2017-09-12T12:46:44.976Z,6.7
2017-09-12T12:47:47.385Z,6.7
2017-09-12T12:48:49.790Z,6.7
2017-09-12T12:49:52.188Z,6.7
2017-09-12T12:50:54.597Z,6.8
2017-09-12T12:51:57.001Z,6.8
2017-09-12T12:52:59.404Z,6.8
2017-09-12T12:54:02.177Z,6.8
2017-09-12T12:55:04.574Z,6.8
2017-09-12T12:56:06.985Z,6.8
2017-09-12T12:57:09.397Z,6.8
2017-09-12T12:58:12.134Z,6.8
2017-09-12T12:59:14.545Z,6.8
2017-09-12T13:00:16.947Z,6.8
2017-09-12T13:01:19.350Z,6.8
2017-09-12T13:02:21.760Z,6.7
2017-09-12T13:03:24.168Z,6.8
2017-09-12T13:04:26.568Z,6.7
2017-09-12T13:05:28.979Z,6.7
2017-09-12T13:06:31.378Z,6.7
2017-09-12T13:07:33.786Z,6.7
2017-09-12T13:08:36.197Z,6.7
2017-09-12T13:09:38.599Z,6.6
2017-09-12T13:10:40.993Z,6.6
2017-09-12T13:11:43.420Z,6.6
2017-09-12T13:12:45.831Z,6.6
2017-09-12T13:13:48.241Z,6.6
2017-09-12T13:14:50.650Z,6.6
2017-09-12T13:15:53.049Z,6.6
2017-09-12T13:16:55.458Z,6.6
2017-09-12T13:17:57.872Z,6.6
2017-09-12T13:19:00.260Z,6.6
2017-09-12T13:20:02.669Z,6.6
2017-09-12T13:21:05.070Z,6.6
2017-09-12T13:22:07.471Z,6.6
2017-09-12T13:23:10.218Z,6.6
2017-09-12T13:24:12.623Z,6.6
2017-09-12T13:25:15.022Z,6.7
2017-09-12T13:26:17.773Z,6.6
2017-09-12T13:27:20.183Z,6.6
2017-09-12T13:28:22.578Z,6.6
2017-09-12T13:29:24.975Z,6.6
2017-09-12T13:30:27.388Z,6.6
2017-09-12T13:31:29.785Z,6.6
2017-09-12T13:32:32.193Z,6.5
2017-09-12T13:33:34.608Z,6.6
2017-09-12T13:34:37.014Z,6.6
2017-09-12T13:35:39.424Z,6.6
2017-09-12T13:36:41.830Z,6.5
2017-09-12T13:37:44.224Z,6.5
2017-09-12T13:38:46.631Z,6.6
2017-09-12T13:39:49.052Z,6.6
2017-09-12T13:40:51.457Z,6.6
2017-09-12T13:41:53.865Z,6.6
2017-09-12T13:42:56.261Z,6.6
2017-09-12T13:43:58.671Z,6.6
2017-09-12T13:45:01.086Z,6.5
2017-09-12T13:46:03.485Z,6.6
2017-09-12T13:47:05.905Z,6.6
2017-09-12T13:48:08.302Z,6.7
2017-09-12T13:49:10.710Z,6.6
2017-09-12T13:50:13.129Z,6.7
2017-09-12T13:51:15.530Z,6.7
2017-09-12T13:52:17.934Z,6.7
2017-09-12T13:53:20.357Z,6.7
2017-09-12T13:54:22.761Z,6.7
2017-09-12T13:55:25.171Z,6.7
2017-09-12T13:56:27.575Z,6.7
2017-09-12T13:57:29.977Z,6.7
2017-09-12T13:58:32.377Z,6.7
2017-09-12T13:59:34.778Z,6.7
2017-09-12T14:00:37.187Z,6.7
2017-09-12T14:01:39.601Z,6.7
2017-09-12T14:02:42.352Z,6.8
2017-09-12T14:03:44.750Z,6.8
2017-09-12T14:04:47.159Z,6.8
2017-09-12T14:05:49.573Z,6.8
2017-09-12T14:06:51.980Z,6.9
2017-09-12T14:07:54.389Z,6.9
2017-09-12T14:08:56.789Z,6.9
2017-09-12T14:09:59.194Z,6.9
2017-09-12T14:11:01.626Z,6.9
2017-09-12T14:12:04.033Z,6.9
2017-09-12T14:13:06.444Z,6.9
2017-09-12T14:14:08.844Z,6.8
2017-09-12T14:15:11.253Z,6.9
2017-09-12T14:16:13.671Z,6.9
2017-09-12T14:17:16.086Z,6.8
2017-09-12T14:18:18.484Z,6.9
2017-09-12T14:19:20.898Z,6.8
2017-09-12T14:20:23.304Z,6.8
2017-09-12T14:21:25.714Z,6.8
2017-09-12T14:22:28.127Z,6.8
2017-09-12T14:23:30.527Z,6.8